Time;durP1;ratioP1;P1;durP2;ratioP2;P2;SDS_P1;SDS_P2;PMS_P1;PMS_P2;Temp;Humidity;BMP_temperature;BMP_pressure;BME280_temperature;BME280_humidity;BME280_pressure;Samples;Min_cycle;Max_cycle;Signal;HPM_P1;HPM_P2
2021/08/19 00:00:57;;;;;;;9.20;6.25;;;;;;;;;;5060449;28;20032;-80
2021/08/19 00:03:23;;;;;;;8.68;6.85;;;;;;;;;;5060009;28;20106;-80
2021/08/19 00:05:49;;;;;;;7.80;6.28;;;;;;;;;;5060137;28;20037;-80
2021/08/19 00:08:14;;;;;;;7.00;5.47;;;;;;;;;;5115294;28;20024;-80
2021/08/19 00:10:40;;;;;;;11.57;5.25;;;;;;;;;;5099461;28;20544;-80
2021/08/19 00:13:05;;;;;;;7.20;5.70;;;;;;;;;;5100090;28;20062;-80
2021/08/19 00:15:31;;;;;;;8.60;6.78;;;;;;;;;;5100029;28;20392;-80
2021/08/19 00:17:56;;;;;;;10.48;6.50;;;;;;;;;;5100624;28;20497;-81
2021/08/19 00:20:21;;;;;;;8.88;5.93;;;;;;;;;;5116508;28;20048;-80
2021/08/19 00:22:47;;;;;;;7.90;6.15;;;;;;;;;;5099626;28;20047;-80
2021/08/19 00:25:12;;;;;;;8.23;6.25;;;;;;;;;;5082725;28;20037;-80
2021/08/19 00:27:38;;;;;;;6.15;5.53;;;;;;;;;;5077307;28;20040;-80
2021/08/19 00:30:05;;;;;;;11.50;5.65;;;;;;;;;;5093100;28;20029;-80
2021/08/19 00:32:31;;;;;;;7.97;5.30;;;;;;;;;;5058956;28;20029;-80
2021/08/19 00:34:56;;;;;;;8.48;5.82;;;;;;;;;;5093046;28;20509;-81
2021/08/19 00:37:22;;;;;;;9.20;5.50;;;;;;;;;;5076095;28;20056;-80
2021/08/19 00:39:47;;;;;;;7.68;5.60;;;;;;;;;;5059319;28;20041;-80
2021/08/19 00:42:20;;;;;;;9.73;5.65;;;;;;;;;;5075818;28;20021;-80
2021/08/19 00:44:47;;;;;;;11.93;6.03;;;;;;;;;;5092560;28;20028;-80
2021/08/19 00:47:13;;;;;;;9.57;5.88;;;;;;;;;;5059143;28;20037;-80
2021/08/19 00:49:41;;;;;;;6.55;5.50;;;;;;;;;;5092774;28;20036;-80
2021/08/19 00:52:08;;;;;;;6.32;5.13;;;;;;;;;;5092653;28;20036;-80
2021/08/19 00:54:35;;;;;;;8.18;5.63;;;;;;;;;;5102294;28;20091;-80
2021/08/19 00:57:03;;;;;;;6.88;5.55;;;;;;;;;;5116432;28;20499;-80
2021/08/19 00:59:39;;;;;;;7.28;5.60;;;;;;;;;;5098807;28;20046;-80
2021/08/19 01:02:08;;;;;;;12.10;5.63;;;;;;;;;;5116832;28;20123;-80
2021/08/19 01:04:37;;;;;;;9.02;5.85;;;;;;;;;;5098261;28;20409;-80
2021/08/19 01:07:03;;;;;;;9.88;5.55;;;;;;;;;;5095818;28;20123;-81
2021/08/19 01:09:29;;;;;;;7.00;5.57;;;;;;;;;;5079354;28;20111;-80
2021/08/19 01:11:54;;;;;;;7.57;5.60;;;;;;;;;;5078977;28;20148;-80
2021/08/19 01:14:20;;;;;;;8.70;5.95;;;;;;;;;;5078788;28;20043;-80
2021/08/19 01:16:47;;;;;;;7.72;5.68;;;;;;;;;;5095387;28;20051;-80
2021/08/19 01:19:21;;;;;;;7.35;5.47;;;;;;;;;;5078744;28;20036;-80
2021/08/19 01:21:50;;;;;;;10.50;6.53;;;;;;;;;;5078333;28;20043;-80
2021/08/19 01:24:16;;;;;;;11.57;6.20;;;;;;;;;;5094831;28;20113;-80
2021/08/19 01:26:42;;;;;;;6.82;5.35;;;;;;;;;;5095467;28;20474;-80
2021/08/19 01:29:08;;;;;;;9.20;5.97;;;;;;;;;;5078572;28;20032;-80
2021/08/19 01:31:35;;;;;;;8.73;5.88;;;;;;;;;;5094287;28;20032;-80
2021/08/19 01:34:00;;;;;;;12.07;5.75;;;;;;;;;;5094852;28;20097;-80
2021/08/19 01:36:26;;;;;;;7.35;5.65;;;;;;;;;;5079196;28;20127;-80
2021/08/19 01:38:52;;;;;;;7.85;5.35;;;;;;;;;;5095645;28;20105;-80
2021/08/19 01:41:18;;;;;;;8.68;5.88;;;;;;;;;;5078464;28;20036;-80
2021/08/19 01:43:46;;;;;;;10.20;5.65;;;;;;;;;;5062244;28;20508;-80
2021/08/19 01:46:14;;;;;;;6.78;4.63;;;;;;;;;;5078039;28;20108;-80
2021/08/19 01:48:41;;;;;;;8.35;5.10;;;;;;;;;;5062272;28;20548;-80
2021/08/19 01:51:08;;;;;;;7.40;4.75;;;;;;;;;;5078780;28;20054;-80
2021/08/19 01:53:34;;;;;;;7.93;4.55;;;;;;;;;;5062040;28;20021;-81
2021/08/19 01:55:59;;;;;;;9.10;5.45;;;;;;;;;;5064153;28;20224;-80
2021/08/19 01:58:25;;;;;;;7.70;4.75;;;;;;;;;;5098157;28;20032;-80
2021/08/19 02:00:51;;;;;;;7.13;4.82;;;;;;;;;;5083378;28;20032;-81
2021/08/19 02:03:17;;;;;;;6.15;5.05;;;;;;;;;;5099875;28;20508;-81
2021/08/19 02:05:47;;;;;;;7.97;4.90;;;;;;;;;;5099791;28;20038;-80
2021/08/19 02:08:12;;;;;;;6.65;4.80;;;;;;;;;;5099298;28;20059;-81
2021/08/19 02:10:38;;;;;;;7.63;5.07;;;;;;;;;;5099418;28;20024;-81
2021/08/19 02:13:04;;;;;;;7.40;5.40;;;;;;;;;;5082182;28;20583;-80
2021/08/19 02:15:30;;;;;;;10.70;5.32;;;;;;;;;;5099662;28;20055;-81
2021/08/19 02:17:55;;;;;;;6.28;5.15;;;;;;;;;;5083062;28;20040;-81
2021/08/19 02:20:21;;;;;;;5.95;4.85;;;;;;;;;;5082268;28;20032;-81
2021/08/19 02:22:50;;;;;;;9.48;5.25;;;;;;;;;;5078716;28;20119;-80
2021/08/19 02:25:17;;;;;;;6.82;4.88;;;;;;;;;;5062321;28;20474;-80
2021/08/19 02:27:43;;;;;;;7.25;5.20;;;;;;;;;;5062035;28;20090;-81
2021/08/19 02:30:09;;;;;;;6.97;5.00;;;;;;;;;;5061989;28;20042;-80
2021/08/19 02:32:35;;;;;;;7.55;5.50;;;;;;;;;;5078684;28;20035;-80
2021/08/19 02:35:01;;;;;;;10.95;5.25;;;;;;;;;;5078952;28;20478;-80
2021/08/19 02:37:27;;;;;;;9.05;5.05;;;;;;;;;;5078754;28;20033;-80
2021/08/19 02:39:52;;;;;;;8.30;5.47;;;;;;;;;;5063198;28;20059;-81
2021/08/19 02:42:18;;;;;;;6.60;5.15;;;;;;;;;;5061920;28;20167;-80
2021/08/19 02:44:43;;;;;;;8.65;5.60;;;;;;;;;;5077345;28;20106;-81
2021/08/19 02:47:08;;;;;;;7.28;6.00;;;;;;;;;;5078477;28;20036;-80
2021/08/19 02:49:34;;;;;;;11.00;5.75;;;;;;;;;;5062970;28;20437;-81
2021/08/19 02:51:59;;;;;;;7.28;5.93;;;;;;;;;;5081104;28;20035;-80
2021/08/19 02:54:25;;;;;;;6.70;5.65;;;;;;;;;;5062233;28;20441;-81
2021/08/19 02:56:50;;;;;;;8.50;5.30;;;;;;;;;;5078234;28;20033;-81
2021/08/19 02:59:16;;;;;;;10.90;5.72;;;;;;;;;;5077111;28;20051;-80
2021/08/19 03:01:41;;;;;;;6.30;5.63;;;;;;;;;;5095267;28;20047;-80
2021/08/19 03:04:07;;;;;;;8.98;6.07;;;;;;;;;;5061832;28;20029;-80
2021/08/19 03:06:32;;;;;;;7.15;5.57;;;;;;;;;;5061818;28;20036;-80
2021/08/19 03:08:58;;;;;;;6.32;5.15;;;;;;;;;;5077102;28;20449;-80
2021/08/19 03:11:23;;;;;;;8.40;5.70;;;;;;;;;;5077734;28;20527;-80
2021/08/19 03:13:48;;;;;;;8.63;6.32;;;;;;;;;;5094582;28;20044;-80
2021/08/19 03:16:14;;;;;;;6.53;5.70;;;;;;;;;;5094245;28;20033;-80
2021/08/19 03:18:39;;;;;;;8.80;5.43;;;;;;;;;;5078662;28;20119;-80
2021/08/19 03:21:05;;;;;;;8.02;6.30;;;;;;;;;;5077284;28;20036;-80
2021/08/19 03:23:30;;;;;;;8.60;5.88;;;;;;;;;;5080384;28;20146;-80
2021/08/19 03:25:56;;;;;;;8.95;6.70;;;;;;;;;;5080105;28;20085;-80
2021/08/19 03:28:22;;;;;;;8.85;6.85;;;;;;;;;;5080755;28;20403;-80
2021/08/19 03:30:48;;;;;;;8.00;6.13;;;;;;;;;;5080462;28;20106;-81
2021/08/19 03:33:16;;;;;;;8.90;6.88;;;;;;;;;;5098153;28;20043;-80
2021/08/19 03:35:41;;;;;;;9.57;7.38;;;;;;;;;;5103130;28;20499;-81
2021/08/19 03:38:08;;;;;;;11.45;7.90;;;;;;;;;;5100724;28;20032;-80
2021/08/19 03:40:33;;;;;;;8.20;6.97;;;;;;;;;;5117704;28;20068;-80
2021/08/19 03:42:59;;;;;;;10.73;7.25;;;;;;;;;;5101549;28;20400;-81
2021/08/19 03:45:24;;;;;;;9.20;7.60;;;;;;;;;;5101085;28;20034;-80
2021/08/19 03:47:50;;;;;;;8.77;7.15;;;;;;;;;;5117705;28;20050;-80
2021/08/19 03:50:15;;;;;;;10.30;6.93;;;;;;;;;;5085817;28;20034;-81
2021/08/19 03:52:40;;;;;;;10.80;5.93;;;;;;;;;;5097072;28;20036;-80
2021/08/19 03:55:06;;;;;;;10.35;6.80;;;;;;;;;;5096491;28;20130;-80
2021/08/19 03:57:32;;;;;;;13.82;7.32;;;;;;;;;;5097348;28;20118;-80
2021/08/19 03:59:57;;;;;;;10.18;7.07;;;;;;;;;;5080210;28;20089;-80
2021/08/19 04:02:23;;;;;;;11.02;6.65;;;;;;;;;;5079602;28;20039;-80
2021/08/19 04:04:48;;;;;;;14.25;7.07;;;;;;;;;;5096782;28;20036;-80
2021/08/19 04:07:13;;;;;;;8.50;7.10;;;;;;;;;;5097119;28;20036;-80
2021/08/19 04:09:39;;;;;;;10.90;7.35;;;;;;;;;;5106902;28;20059;-80
2021/08/19 04:12:04;;;;;;;11.52;7.25;;;;;;;;;;5099921;28;20043;-80
2021/08/19 04:14:31;;;;;;;7.47;6.28;;;;;;;;;;5117134;28;20035;-80
2021/08/19 04:16:58;;;;;;;10.25;7.82;;;;;;;;;;5100734;28;20040;-80
2021/08/19 04:19:23;;;;;;;10.32;7.57;;;;;;;;;;5099995;28;20495;-80
2021/08/19 04:21:49;;;;;;;10.13;8.15;;;;;;;;;;5099387;28;20134;-80
2021/08/19 04:24:15;;;;;;;9.57;7.45;;;;;;;;;;5117050;28;20122;-80
2021/08/19 04:26:40;;;;;;;9.57;6.30;;;;;;;;;;5081069;28;20039;-80
2021/08/19 04:29:06;;;;;;;12.25;8.13;;;;;;;;;;5096898;28;20526;-80
2021/08/19 04:31:32;;;;;;;9.38;7.70;;;;;;;;;;5096553;28;20474;-80
2021/08/19 04:33:57;;;;;;;9.70;6.72;;;;;;;;;;5079359;28;20478;-81
2021/08/19 04:36:23;;;;;;;10.93;7.30;;;;;;;;;;5095940;28;20032;-80
2021/08/19 04:38:48;;;;;;;9.65;7.47;;;;;;;;;;5075800;28;20478;-80
2021/08/19 04:41:13;;;;;;;10.68;6.75;;;;;;;;;;5075805;28;20037;-80
2021/08/19 04:43:39;;;;;;;8.65;6.88;;;;;;;;;;5076419;28;20044;-80
2021/08/19 04:46:04;;;;;;;13.15;6.65;;;;;;;;;;5059414;28;20429;-80
2021/08/19 04:48:30;;;;;;;12.88;7.05;;;;;;;;;;5076340;28;20039;-80
2021/08/19 04:50:55;;;;;;;15.00;7.70;;;;;;;;;;5073507;28;20028;-80
2021/08/19 04:53:21;;;;;;;8.55;7.30;;;;;;;;;;5075835;28;20028;-80
2021/08/19 04:55:46;;;;;;;8.40;6.43;;;;;;;;;;5075805;28;20052;-80
2021/08/19 04:58:11;;;;;;;8.32;6.97;;;;;;;;;;5059241;28;20032;-80
2021/08/19 05:00:37;;;;;;;8.07;6.57;;;;;;;;;;5059249;28;20040;-82
2021/08/19 05:03:02;;;;;;;10.77;7.53;;;;;;;;;;5059527;28;20039;-81
2021/08/19 05:05:28;;;;;;;10.35;7.65;;;;;;;;;;5075850;28;20124;-81
2021/08/19 05:07:53;;;;;;;8.70;7.55;;;;;;;;;;5062137;28;20028;-80
2021/08/19 05:10:19;;;;;;;10.10;7.40;;;;;;;;;;5063060;28;20078;-81
2021/08/19 05:12:44;;;;;;;8.98;7.03;;;;;;;;;;5063583;28;20082;-81
2021/08/19 05:15:10;;;;;;;8.88;6.65;;;;;;;;;;5080187;28;20509;-81
2021/08/19 05:17:35;;;;;;;10.73;7.22;;;;;;;;;;5062577;28;20075;-80
2021/08/19 05:20:01;;;;;;;11.52;7.60;;;;;;;;;;5100141;28;20063;-80
2021/08/19 05:22:26;;;;;;;8.13;6.40;;;;;;;;;;5102910;28;20032;-80
2021/08/19 05:24:52;;;;;;;9.40;7.68;;;;;;;;;;5106846;28;20095;-80
2021/08/19 05:27:17;;;;;;;8.25;6.35;;;;;;;;;;5083157;28;20047;-80
2021/08/19 05:29:43;;;;;;;8.40;6.65;;;;;;;;;;5082855;28;20366;-80
2021/08/19 05:32:08;;;;;;;11.02;7.22;;;;;;;;;;5100340;28;20069;-80
2021/08/19 05:34:34;;;;;;;8.50;6.30;;;;;;;;;;5082670;28;20513;-80
2021/08/19 05:36:59;;;;;;;9.93;7.47;;;;;;;;;;5099564;28;20039;-80
2021/08/19 05:39:25;;;;;;;7.85;6.63;;;;;;;;;;5101733;28;20055;-80
2021/08/19 05:41:50;;;;;;;9.93;7.53;;;;;;;;;;5099770;28;20036;-80
2021/08/19 05:44:15;;;;;;;8.50;7.22;;;;;;;;;;5099693;28;20028;-80
2021/08/19 05:46:41;;;;;;;11.10;8.10;;;;;;;;;;5100039;28;20358;-80
2021/08/19 05:49:09;;;;;;;10.52;8.27;;;;;;;;;;5082885;28;20096;-80
2021/08/19 05:51:35;;;;;;;10.77;7.70;;;;;;;;;;5098183;28;20042;-80
2021/08/19 05:54:00;;;;;;;10.35;7.63;;;;;;;;;;5081739;28;20357;-80
2021/08/19 05:56:26;;;;;;;10.10;8.05;;;;;;;;;;5087225;28;20540;-80
2021/08/19 05:58:51;;;;;;;11.75;8.32;;;;;;;;;;5080517;28;20033;-80
2021/08/19 06:01:16;;;;;;;9.13;7.72;;;;;;;;;;5079045;28;20086;-80
2021/08/19 06:03:42;;;;;;;10.93;7.93;;;;;;;;;;5062459;28;20029;-80
2021/08/19 06:06:08;;;;;;;12.02;8.13;;;;;;;;;;5078835;28;20039;-80
2021/08/19 06:08:34;;;;;;;11.00;8.43;;;;;;;;;;5062192;28;20182;-80
2021/08/19 06:10:59;;;;;;;11.13;8.80;;;;;;;;;;5062409;28;20082;-81
2021/08/19 06:13:25;;;;;;;9.57;8.25;;;;;;;;;;5079331;28;20040;-80
2021/08/19 06:15:50;;;;;;;8.82;7.43;;;;;;;;;;5080299;28;20128;-80
2021/08/19 06:18:15;;;;;;;8.52;7.32;;;;;;;;;;5079567;28;20082;-80
2021/08/19 06:20:41;;;;;;;8.88;7.35;;;;;;;;;;5063610;28;20055;-80
2021/08/19 06:23:13;;;;;;;10.63;7.78;;;;;;;;;;5063751;28;20040;-81
2021/08/19 06:25:44;;;;;;;10.27;7.35;;;;;;;;;;5079376;28;20036;-80
2021/08/19 06:28:09;;;;;;;9.98;8.05;;;;;;;;;;5079570;28;20029;-81
2021/08/19 06:30:36;;;;;;;9.20;7.68;;;;;;;;;;5080978;28;20027;-81
2021/08/19 06:33:02;;;;;;;11.02;7.93;;;;;;;;;;5081908;28;20036;-81
2021/08/19 06:35:28;;;;;;;15.93;7.90;;;;;;;;;;5098886;28;20113;-81
2021/08/19 06:37:55;;;;;;;12.45;8.10;;;;;;;;;;5100569;28;20032;-81
2021/08/19 06:40:21;;;;;;;14.27;7.57;;;;;;;;;;5099116;28;20123;-81
2021/08/19 06:42:47;;;;;;;9.32;7.60;;;;;;;;;;5099324;28;20566;-81
2021/08/19 06:45:12;;;;;;;13.35;8.07;;;;;;;;;;5117055;28;20032;-81
2021/08/19 06:47:38;;;;;;;9.50;7.72;;;;;;;;;;5102089;28;20077;-81
2021/08/19 06:50:04;;;;;;;10.55;8.07;;;;;;;;;;5118857;28;20036;-81
2021/08/19 06:52:29;;;;;;;12.07;8.18;;;;;;;;;;5086972;28;20041;-81
2021/08/19 06:54:57;;;;;;;9.50;7.75;;;;;;;;;;5078384;28;20105;-81
2021/08/19 06:57:22;;;;;;;11.82;7.85;;;;;;;;;;5061672;28;20043;-81
2021/08/19 06:59:48;;;;;;;11.77;8.30;;;;;;;;;;5060883;28;20033;-81
2021/08/19 07:02:14;;;;;;;10.75;8.18;;;;;;;;;;5061396;28;20036;-81
2021/08/19 07:04:40;;;;;;;12.88;8.55;;;;;;;;;;5061561;28;20041;-81
2021/08/19 07:07:05;;;;;;;12.10;8.35;;;;;;;;;;5077610;28;20150;-80
2021/08/19 07:09:30;;;;;;;12.60;8.43;;;;;;;;;;5061278;28;20036;-82
2021/08/19 07:11:56;;;;;;;10.75;7.70;;;;;;;;;;5079575;28;20066;-81
2021/08/19 07:14:21;;;;;;;11.38;7.60;;;;;;;;;;5080285;28;20033;-81
2021/08/19 07:16:47;;;;;;;13.77;7.95;;;;;;;;;;5078381;28;20047;-81
2021/08/19 07:19:13;;;;;;;11.57;7.03;;;;;;;;;;5061585;28;20032;-81
2021/08/19 07:21:39;;;;;;;11.65;7.75;;;;;;;;;;5061147;28;20044;-81
2021/08/19 07:24:04;;;;;;;10.73;7.65;;;;;;;;;;5064441;28;20377;-81
2021/08/19 07:26:30;;;;;;;9.52;7.05;;;;;;;;;;5078132;28;20037;-81
2021/08/19 07:28:57;;;;;;;7.95;6.15;;;;;;;;;;5061091;28;20032;-81
2021/08/19 07:31:23;;;;;;;9.05;6.20;;;;;;;;;;5091012;28;20032;-80
2021/08/19 07:33:48;;;;;;;9.13;6.13;;;;;;;;;;5097617;28;20127;-81
2021/08/19 07:36:14;;;;;;;15.68;6.32;;;;;;;;;;5080858;28;20052;-81
2021/08/19 07:38:40;;;;;;;9.90;5.75;;;;;;;;;;5099257;28;20070;-81
2021/08/19 07:41:06;;;;;;;10.35;5.50;;;;;;;;;;5081773;28;20032;-81
2021/08/19 07:43:31;;;;;;;7.93;5.13;;;;;;;;;;5098821;28;20039;-80
2021/08/19 07:45:58;;;;;;;8.15;5.28;;;;;;;;;;5082646;28;20055;-80
2021/08/19 07:48:23;;;;;;;8.65;5.57;;;;;;;;;;5060100;28;20029;-81
2021/08/19 07:50:49;;;;;;;6.82;5.20;;;;;;;;;;5060310;28;20029;-81
2021/08/19 07:53:15;;;;;;;7.40;5.18;;;;;;;;;;5081248;28;20032;-80
2021/08/19 07:55:40;;;;;;;8.73;5.00;;;;;;;;;;5119566;28;20043;-81
2021/08/19 07:58:06;;;;;;;9.52;5.38;;;;;;;;;;5117612;28;20193;-81
2021/08/19 08:00:32;;;;;;;8.60;5.10;;;;;;;;;;5117994;28;20031;-81
2021/08/19 08:02:58;;;;;;;8.00;5.45;;;;;;;;;;5100690;28;20227;-81
2021/08/19 08:05:26;;;;;;;9.07;5.30;;;;;;;;;;5117817;28;20044;-80
2021/08/19 08:07:53;;;;;;;9.57;5.80;;;;;;;;;;5117677;28;20041;-80
2021/08/19 08:10:19;;;;;;;11.68;5.43;;;;;;;;;;5101164;28;20085;-81
2021/08/19 08:12:45;;;;;;;7.70;5.07;;;;;;;;;;5117445;28;20074;-81
2021/08/19 08:15:11;;;;;;;10.77;5.25;;;;;;;;;;5118125;28;20028;-81
2021/08/19 08:17:38;;;;;;;5.85;4.30;;;;;;;;;;5100131;28;20144;-81
2021/08/19 08:20:06;;;;;;;12.07;5.30;;;;;;;;;;5117257;28;20027;-81
2021/08/19 08:22:32;;;;;;;6.00;4.97;;;;;;;;;;5095341;28;20024;-81
2021/08/19 08:24:57;;;;;;;9.00;5.70;;;;;;;;;;5059903;28;20058;-81
2021/08/19 08:27:23;;;;;;;9.60;5.35;;;;;;;;;;5076996;28;20055;-81
2021/08/19 08:29:48;;;;;;;8.55;5.65;;;;;;;;;;5076833;28;20052;-81
2021/08/19 08:32:14;;;;;;;9.50;5.57;;;;;;;;;;5076715;28;20409;-81
2021/08/19 08:34:40;;;;;;;7.05;5.68;;;;;;;;;;5076591;28;20410;-81
2021/08/19 08:37:07;;;;;;;7.97;5.32;;;;;;;;;;5059573;28;20029;-81
2021/08/19 08:39:36;;;;;;;9.50;5.28;;;;;;;;;;5058739;28;20040;-81
2021/08/19 08:42:06;;;;;;;11.52;6.28;;;;;;;;;;5077640;28;20040;-81
2021/08/19 08:44:32;;;;;;;9.13;5.05;;;;;;;;;;5081412;28;20029;-81
2021/08/19 08:46:58;;;;;;;8.40;5.13;;;;;;;;;;5067282;28;20035;-81
2021/08/19 08:49:24;;;;;;;6.05;4.88;;;;;;;;;;5100743;28;20106;-81
2021/08/19 08:51:55;;;;;;;7.53;5.22;;;;;;;;;;5100404;28;20035;-81
2021/08/19 08:54:21;;;;;;;10.40;5.70;;;;;;;;;;5101422;28;20122;-81
2021/08/19 08:56:47;;;;;;;10.05;6.85;;;;;;;;;;5083682;28;20040;-81
2021/08/19 08:59:12;;;;;;;11.50;6.28;;;;;;;;;;5100725;28;20065;-81
2021/08/19 09:01:37;;;;;;;10.20;6.60;;;;;;;;;;5083951;28;20122;-81
2021/08/19 09:04:03;;;;;;;10.73;6.85;;;;;;;;;;5101049;28;20547;-81
2021/08/19 09:06:37;;;;;;;9.98;7.47;;;;;;;;;;5083568;28;20035;-82
2021/08/19 09:09:23;;;;;;;11.07;8.10;;;;;;;;;;5101987;28;20039;-82
2021/08/19 09:11:53;;;;;;;;;;;;;;;;;;5083229;28;20032;-81
2021/08/19 09:14:24;;;;;;;10.60;7.20;;;;;;;;;;5084128;28;19919;-81
2021/08/19 09:16:51;;;;;;;11.88;8.20;;;;;;;;;;5083410;28;20040;-81
2021/08/19 09:19:19;;;;;;;10.63;6.78;;;;;;;;;;5083694;28;20027;-81
2021/08/19 09:21:56;;;;;;;8.43;6.38;;;;;;;;;;5100882;28;20039;-81
2021/08/19 09:24:27;;;;;;;10.88;6.72;;;;;;;;;;5089098;28;20031;-81
2021/08/19 09:26:54;;;;;;;11.18;6.97;;;;;;;;;;5084196;28;20032;-81
2021/08/19 09:29:28;;;;;;;11.10;6.90;;;;;;;;;;5083268;28;20028;-81
2021/08/19 09:32:07;;;;;;;9.27;6.55;;;;;;;;;;5100845;28;20090;-81
2021/08/19 09:34:33;;;;;;;9.15;5.88;;;;;;;;;;5099813;28;20040;-81
2021/08/19 09:37:03;;;;;;;9.30;6.55;;;;;;;;;;5100259;28;20035;-81
2021/08/19 09:39:34;;;;;;;9.88;6.47;;;;;;;;;;5083472;28;20039;-81
2021/08/19 09:41:59;;;;;;;10.38;5.78;;;;;;;;;;5083603;28;20397;-81
2021/08/19 09:44:37;;;;;;;16.52;6.95;;;;;;;;;;5083608;28;20032;-81
2021/08/19 09:47:04;;;;;;;9.35;6.35;;;;;;;;;;5100959;28;20039;-81
2021/08/19 09:49:34;;;;;;;10.18;6.85;;;;;;;;;;5082301;28;20035;-81
2021/08/19 09:52:12;;;;;;;7.82;6.75;;;;;;;;;;5063688;28;20040;-82
2021/08/19 09:54:40;;;;;;;11.30;7.30;;;;;;;;;;5080682;28;20058;-82
2021/08/19 09:57:07;;;;;;;7.82;6.35;;;;;;;;;;5067702;28;20033;-81
2021/08/19 09:59:36;;;;;;;8.02;6.82;;;;;;;;;;5121037;28;20035;-81
2021/08/19 10:02:03;;;;;;;10.30;7.20;;;;;;;;;;5103293;28;20023;-81
2021/08/19 10:04:29;;;;;;;9.65;6.80;;;;;;;;;;5120761;28;20031;-81
2021/08/19 10:06:56;;;;;;;8.48;6.03;;;;;;;;;;5120468;28;20034;-81
2021/08/19 10:09:22;;;;;;;9.02;6.60;;;;;;;;;;5102956;28;20083;-81
2021/08/19 10:11:50;;;;;;;9.63;6.50;;;;;;;;;;5102586;28;20035;-80
2021/08/19 10:14:19;;;;;;;10.05;6.22;;;;;;;;;;5102774;28;20485;-81
2021/08/19 10:16:46;;;;;;;8.73;6.22;;;;;;;;;;5103949;28;20054;-80
2021/08/19 10:19:19;;;;;;;9.75;6.82;;;;;;;;;;5121009;28;20056;-80
2021/08/19 10:21:50;;;;;;;8.48;5.90;;;;;;;;;;5102942;28;20547;-80
2021/08/19 10:24:17;;;;;;;9.80;6.32;;;;;;;;;;5101944;28;20051;-80
2021/08/19 10:26:42;;;;;;;8.57;5.50;;;;;;;;;;5102758;28;20120;-81
2021/08/19 10:29:08;;;;;;;10.15;6.43;;;;;;;;;;5119918;28;20461;-80
2021/08/19 10:31:36;;;;;;;7.88;6.03;;;;;;;;;;5098139;28;20115;-80
2021/08/19 10:34:03;;;;;;;7.25;5.07;;;;;;;;;;5062340;28;20120;-80
2021/08/19 10:36:28;;;;;;;6.93;4.93;;;;;;;;;;5061470;28;20100;-80
2021/08/19 10:39:32;;;;;;;6.68;4.53;;;;;;;;;;5064544;28;20094;-80
2021/08/19 10:41:58;;;;;;;5.55;4.05;;;;;;;;;;5081786;28;20081;-80
2021/08/19 10:44:44;;;;;;;6.10;4.00;;;;;;;;;;5081703;28;20035;-80
2021/08/19 10:47:37;;;;;;;5.22;3.97;;;;;;;;;;5098300;28;20044;-81
2021/08/19 10:50:26;;;;;;;4.70;3.63;;;;;;;;;;5100263;28;20039;-81
2021/08/19 10:52:53;;;;;;;6.00;4.00;;;;;;;;;;5089780;28;20037;-81
2021/08/19 10:55:19;;;;;;;4.18;3.67;;;;;;;;;;5076941;28;20062;-81
2021/08/19 10:57:55;;;;;;;9.40;5.32;;;;;;;;;;5076340;28;20044;-81
2021/08/19 11:00:39;;;;;;;7.03;4.93;;;;;;;;;;5077284;28;20509;-81
2021/08/19 11:03:04;;;;;;;7.85;5.25;;;;;;;;;;5061571;28;20500;-81
2021/08/19 11:05:30;;;;;;;9.38;5.95;;;;;;;;;;5077273;28;20036;-80
2021/08/19 11:07:58;;;;;;;8.63;6.10;;;;;;;;;;5061175;28;20041;-80
2021/08/19 11:10:30;;;;;;;7.07;5.55;;;;;;;;;;5078677;28;20032;-80
2021/08/19 11:13:10;;;;;;;9.77;7.80;;;;;;;;;;5061946;28;20041;-81
2021/08/19 11:15:48;;;;;;;10.13;7.85;;;;;;;;;;5061369;28;20033;-81
2021/08/19 11:18:25;;;;;;;11.45;8.40;;;;;;;;;;5061547;28;20028;-80
2021/08/19 11:20:51;;;;;;;12.27;8.13;;;;;;;;;;5060688;28;20036;-80
2021/08/19 11:23:17;;;;;;;16.27;9.60;;;;;;;;;;5063598;28;20020;-80
2021/08/19 11:25:45;;;;;;;14.80;9.55;;;;;;;;;;5078277;28;20036;-81
2021/08/19 11:28:12;;;;;;;14.65;9.27;;;;;;;;;;5078597;28;20040;-81
2021/08/19 11:30:41;;;;;;;15.18;10.50;;;;;;;;;;5061700;28;20048;-81
2021/08/19 11:33:14;;;;;;;13.68;10.30;;;;;;;;;;5085786;28;20059;-80
2021/08/19 11:35:42;;;;;;;13.32;10.13;;;;;;;;;;5098397;28;20056;-81
2021/08/19 11:38:10;;;;;;;13.38;10.40;;;;;;;;;;5099132;28;20405;-81
2021/08/19 11:40:39;;;;;;;15.18;10.15;;;;;;;;;;5080916;28;20033;-80
2021/08/19 11:43:26;;;;;;;13.65;8.68;;;;;;;;;;5097472;28;20036;-81
2021/08/19 11:46:07;;;;;;;10.88;9.05;;;;;;;;;;5097825;28;20036;-82
2021/08/19 11:48:35;;;;;;;12.52;9.43;;;;;;;;;;5097765;28;20032;-81
2021/08/19 11:51:03;;;;;;;13.02;8.82;;;;;;;;;;5098418;28;20035;-81
2021/08/19 11:53:29;;;;;;;12.48;10.15;;;;;;;;;;5090387;28;20036;-81
2021/08/19 11:56:09;;;;;;;11.95;9.13;;;;;;;;;;5077749;28;20039;-81
2021/08/19 11:58:34;;;;;;;10.20;8.75;;;;;;;;;;5060850;28;20454;-81
2021/08/19 12:01:11;;;;;;;8.80;7.90;;;;;;;;;;5060198;28;20067;-81
2021/08/19 12:03:44;;;;;;;12.48;8.82;;;;;;;;;;5061810;28;20044;-81
2021/08/19 12:06:18;;;;;;;12.60;10.40;;;;;;;;;;5060502;28;20047;-81
2021/08/19 12:08:52;;;;;;;11.50;9.20;;;;;;;;;;5076850;28;20032;-81
2021/08/19 12:11:21;;;;;;;12.15;9.30;;;;;;;;;;5097341;28;20031;-81
2021/08/19 12:13:50;;;;;;;12.95;9.15;;;;;;;;;;5081004;28;20548;-81
2021/08/19 12:16:22;;;;;;;12.52;9.70;;;;;;;;;;5080691;28;20607;-81
2021/08/19 12:19:16;;;;;;;10.88;9.30;;;;;;;;;;5080642;28;20650;-81
2021/08/19 12:21:58;;;;;;;11.88;8.50;;;;;;;;;;5080845;28;20074;-81
2021/08/19 12:24:36;;;;;;;12.35;9.85;;;;;;;;;;5079410;28;20035;-81
2021/08/19 12:27:14;;;;;;;13.23;10.75;;;;;;;;;;5097735;28;20027;-81
2021/08/19 12:29:48;;;;;;;11.38;9.80;;;;;;;;;;5097324;28;20078;-81
2021/08/19 12:32:22;;;;;;;16.60;11.30;;;;;;;;;;5080115;28;20078;-81
2021/08/19 12:35:21;;;;;;;12.18;10.25;;;;;;;;;;5080136;28;20135;-81
2021/08/19 12:37:55;;;;;;;13.30;9.77;;;;;;;;;;5079970;28;20050;-81
2021/08/19 12:40:27;;;;;;;12.80;9.57;;;;;;;;;;5079965;28;20062;-81
2021/08/19 12:43:04;;;;;;;13.98;10.02;;;;;;;;;;5097268;28;20374;-81
2021/08/19 12:45:29;;;;;;;12.68;9.35;;;;;;;;;;5097022;28;20039;-81
2021/08/19 12:48:09;;;;;;;14.40;10.82;;;;;;;;;;5080522;28;20040;-81
2021/08/19 12:50:37;;;;;;;13.05;9.13;;;;;;;;;;5080590;28;20131;-81
2021/08/19 12:53:07;;;;;;;13.68;9.85;;;;;;;;;;5097039;28;20071;-81
2021/08/19 12:55:33;;;;;;;14.10;9.75;;;;;;;;;;5064720;28;20054;-81
2021/08/19 12:57:59;;;;;;;13.80;9.27;;;;;;;;;;5060076;28;20035;-81
2021/08/19 13:00:31;;;;;;;10.63;8.70;;;;;;;;;;5076135;28;20094;-81
2021/08/19 13:02:58;;;;;;;13.73;8.95;;;;;;;;;;5059469;28;20055;-81
2021/08/19 13:05:27;;;;;;;13.00;9.15;;;;;;;;;;5076664;28;20120;-82
2021/08/19 13:07:55;;;;;;;13.63;8.60;;;;;;;;;;5059870;28;20040;-81
2021/08/19 13:10:22;;;;;;;13.43;7.90;;;;;;;;;;5076936;28;20029;-81
2021/08/19 13:12:49;;;;;;;9.82;7.25;;;;;;;;;;5076591;28;20025;-80
2021/08/19 13:15:16;;;;;;;14.20;9.25;;;;;;;;;;5061456;28;20036;-81
2021/08/19 13:17:43;;;;;;;10.43;7.05;;;;;;;;;;5078687;28;20078;-81
2021/08/19 13:20:09;;;;;;;9.65;6.30;;;;;;;;;;5076929;28;20059;-81
2021/08/19 13:22:35;;;;;;;8.93;5.47;;;;;;;;;;5077646;28;20071;-81
2021/08/19 13:25:00;;;;;;;7.15;5.93;;;;;;;;;;5091133;28;20401;-81
2021/08/19 13:27:26;;;;;;;7.70;6.05;;;;;;;;;;5098041;28;20032;-81
2021/08/19 13:29:56;;;;;;;6.35;4.95;;;;;;;;;;5103133;28;20036;-81
2021/08/19 13:32:25;;;;;;;6.75;5.18;;;;;;;;;;5100566;28;20316;-81
2021/08/19 13:34:50;;;;;;;7.57;5.07;;;;;;;;;;5083655;28;20051;-81
2021/08/19 13:37:16;;;;;;;5.75;4.55;;;;;;;;;;5083673;28;20031;-80
2021/08/19 13:39:43;;;;;;;6.32;4.80;;;;;;;;;;5100791;28;20032;-81
2021/08/19 13:42:09;;;;;;;8.85;4.78;;;;;;;;;;5084135;28;20039;-81
2021/08/19 13:44:35;;;;;;;4.90;4.30;;;;;;;;;;5100573;28;20039;-81
2021/08/19 13:47:01;;;;;;;6.50;4.97;;;;;;;;;;5083706;28;20036;-81
2021/08/19 13:49:28;;;;;;;4.68;4.18;;;;;;;;;;5082883;28;20036;-81
2021/08/19 13:51:54;;;;;;;6.20;4.00;;;;;;;;;;5100059;28;20478;-81
2021/08/19 13:54:20;;;;;;;4.15;3.55;;;;;;;;;;5093412;28;20041;-81
2021/08/19 13:56:45;;;;;;;4.57;3.40;;;;;;;;;;5102961;28;20031;-81
2021/08/19 13:59:14;;;;;;;4.82;3.92;;;;;;;;;;5102244;28;20043;-81
2021/08/19 14:01:39;;;;;;;4.43;3.70;;;;;;;;;;5102435;28;20377;-81
2021/08/19 14:04:05;;;;;;;3.53;3.22;;;;;;;;;;5119530;28;20077;-81
2021/08/19 14:06:31;;;;;;;5.38;4.15;;;;;;;;;;5119984;28;20039;-81
2021/08/19 14:08:56;;;;;;;5.22;4.00;;;;;;;;;;5102418;28;20481;-81
2021/08/19 14:11:21;;;;;;;6.55;4.20;;;;;;;;;;5103722;28;20481;-81
2021/08/19 14:13:47;;;;;;;5.10;4.47;;;;;;;;;;5102469;28;20503;-81
2021/08/19 14:16:13;;;;;;;4.68;4.18;;;;;;;;;;5102853;28;20027;-81
2021/08/19 14:18:39;;;;;;;4.70;3.97;;;;;;;;;;5102764;28;20036;-81
2021/08/19 14:21:06;;;;;;;5.30;4.10;;;;;;;;;;5119984;28;20470;-81
2021/08/19 14:23:32;;;;;;;5.05;4.45;;;;;;;;;;5099986;27;20024;-81
2021/08/19 14:25:57;;;;;;;5.90;4.55;;;;;;;;;;5062385;28;20494;-81
2021/08/19 14:28:23;;;;;;;5.78;4.50;;;;;;;;;;5078982;28;20505;-81
2021/08/19 14:30:48;;;;;;;6.45;4.40;;;;;;;;;;5080373;28;20032;-81
2021/08/19 14:33:13;;;;;;;6.18;4.93;;;;;;;;;;5061754;28;20410;-81
2021/08/19 14:35:40;;;;;;;7.13;5.90;;;;;;;;;;5080024;28;20433;-81
2021/08/19 14:38:06;;;;;;;6.45;5.53;;;;;;;;;;5077859;28;20501;-81
2021/08/19 14:40:31;;;;;;;5.47;4.88;;;;;;;;;;5060400;28;20039;-80